createdAt,value
2023-05-14T00:03:02.008Z,8.12
2023-05-14T00:06:39.098Z,8.11
2023-05-14T00:13:29.797Z,8.00
2023-05-14T00:17:01.034Z,8.00
2023-05-14T00:20:20.537Z,7.99
2023-05-14T00:23:49.333Z,7.92
2023-05-14T00:27:08.563Z,7.91
2023-05-14T00:30:29.852Z,7.88
2023-05-14T00:33:59.895Z,7.84
2023-05-14T00:37:41.030Z,7.83
2023-05-14T00:40:58.509Z,7.79
2023-05-14T00:44:10.705Z,7.81
2023-05-14T00:47:49.517Z,7.79
2023-05-14T00:51:27.526Z,7.73
2023-05-14T00:58:48.764Z,7.68
2023-05-14T01:02:03.341Z,7.65
2023-05-14T01:05:40.622Z,7.61
2023-05-14T01:09:19.101Z,7.56
2023-05-14T01:13:07.292Z,7.54
2023-05-14T01:20:16.464Z,7.55
2023-05-14T01:23:42.616Z,7.51
2023-05-14T01:27:06.478Z,7.46
2023-05-14T01:30:22.748Z,7.41
2023-05-14T01:33:50.610Z,7.38
2023-05-14T01:37:22.246Z,7.36
2023-05-14T01:40:40.987Z,7.34
2023-05-14T01:43:47.627Z,7.29
2023-05-14T01:47:05.168Z,7.25
2023-05-14T01:53:47.168Z,7.21
2023-05-14T01:57:23.407Z,7.22
2023-05-14T02:00:54.283Z,7.21
2023-05-14T02:04:30.270Z,7.23
2023-05-14T02:08:10.955Z,7.22
2023-05-14T02:11:22.382Z,7.23
2023-05-14T02:14:44.148Z,7.28
2023-05-14T02:18:06.083Z,7.29
2023-05-14T02:21:43.057Z,7.40
2023-05-14T02:24:55.288Z,7.41
2023-05-14T02:31:45.091Z,7.37
2023-05-14T02:35:00.376Z,7.35
2023-05-14T02:38:16.770Z,7.31
2023-05-14T02:41:35.199Z,7.29
2023-05-14T02:45:09.368Z,7.21
2023-05-14T02:48:47.572Z,7.14
2023-05-14T02:55:34.288Z,7.04
2023-05-14T02:58:51.764Z,6.99
2023-05-14T03:02:21.652Z,7.00
2023-05-14T03:16:23.734Z,6.95
2023-05-14T03:19:38.113Z,6.96
2023-05-14T03:23:11.502Z,7.02
2023-05-14T03:26:31.999Z,7.11
2023-05-14T03:29:58.961Z,7.25
2023-05-14T03:33:23.742Z,7.38
2023-05-14T03:36:32.864Z,7.48
2023-05-14T03:39:53.627Z,7.58
2023-05-14T03:43:29.206Z,7.68
2023-05-14T03:46:58.795Z,7.82
2023-05-14T03:50:16.768Z,7.92
2023-05-14T03:53:44.762Z,8.00
2023-05-14T03:56:56.078Z,8.10
2023-05-14T04:00:19.855Z,8.21
2023-05-14T04:03:25.545Z,8.32
2023-05-14T04:06:54.367Z,8.34
2023-05-14T04:10:27.276Z,8.46
2023-05-14T04:14:01.089Z,8.60
2023-05-14T04:17:20.129Z,8.76
2023-05-14T04:20:49.157Z,8.91
2023-05-14T04:24:13.417Z,9.08
2023-05-14T04:27:41.093Z,9.22
2023-05-14T04:30:58.339Z,9.33
2023-05-14T04:34:17.351Z,9.42
2023-05-14T04:41:46.572Z,9.60
2023-05-14T04:45:14.869Z,9.65
2023-05-14T04:48:52.118Z,9.75
2023-05-14T04:52:16.855Z,9.88
2023-05-14T04:55:47.905Z,10.05
2023-05-14T04:59:19.747Z,10.19
2023-05-14T05:02:44.425Z,10.36
2023-05-14T05:06:10.598Z,10.47
2023-05-14T05:09:43.895Z,10.63
2023-05-14T05:12:59.248Z,10.85
2023-05-14T05:16:25.496Z,11.13
2023-05-14T05:20:01.131Z,11.47
2023-05-14T05:23:25.773Z,11.70
2023-05-14T05:27:04.297Z,11.95
2023-05-14T05:34:11.894Z,12.31
2023-05-14T05:37:18.775Z,12.59
2023-05-14T05:40:42.329Z,12.67
2023-05-14T05:44:05.475Z,12.73
2023-05-14T05:47:16.262Z,13.25
2023-05-14T05:50:44.934Z,13.81
2023-05-14T05:57:18.922Z,15.40
2023-05-14T06:00:33.638Z,15.97
2023-05-14T06:03:51.338Z,16.37
2023-05-14T06:06:57.798Z,16.96
2023-05-14T06:10:09.141Z,17.02
2023-05-14T06:16:47.668Z,16.70
2023-05-14T06:20:13.569Z,16.41
2023-05-14T06:27:24.681Z,17.20
2023-05-14T06:30:41.121Z,17.65
2023-05-14T06:33:50.912Z,17.67
2023-05-14T06:37:08.749Z,18.04
2023-05-14T06:40:30.559Z,18.34
2023-05-14T06:43:56.005Z,18.03
2023-05-14T06:50:30.246Z,18.44
2023-05-14T06:53:41.587Z,18.60
2023-05-14T06:56:56.588Z,18.83
2023-05-14T07:00:00.100Z,18.72
2023-05-14T07:03:22.297Z,18.96
2023-05-14T07:06:35.676Z,18.77
2023-05-14T07:09:42.821Z,18.70
2023-05-14T07:12:59.769Z,18.83
2023-05-14T07:16:20.327Z,18.71
2023-05-14T07:23:04.458Z,19.40
2023-05-14T07:26:11.233Z,19.53
2023-05-14T07:29:33.028Z,19.92
2023-05-14T07:32:47.017Z,19.77
2023-05-14T07:36:13.963Z,19.73
2023-05-14T07:39:35.835Z,19.79
2023-05-14T07:46:38.531Z,20.60
2023-05-14T07:49:54.718Z,21.20
2023-05-14T07:53:26.747Z,21.29
2023-05-14T07:56:38.545Z,21.54
2023-05-14T08:03:24.022Z,22.64
2023-05-14T08:06:45.431Z,23.13
2023-05-14T08:09:53.813Z,23.27
2023-05-14T08:13:11.165Z,23.20
2023-05-14T08:16:23.262Z,23.18
2023-05-14T08:19:38.951Z,22.76
2023-05-14T08:22:57.388Z,22.78
2023-05-14T08:26:27.386Z,22.41
2023-05-14T08:33:23.590Z,22.91
2023-05-14T08:39:57.334Z,24.07
2023-05-14T08:43:21.030Z,24.87
2023-05-14T08:46:59.641Z,24.53
2023-05-14T08:50:17.560Z,23.99
2023-05-14T08:53:45.766Z,24.38
2023-05-14T08:57:00.200Z,25.27
2023-05-14T09:00:35.942Z,24.87
2023-05-14T09:03:51.780Z,23.86
2023-05-14T09:10:37.174Z,23.14
2023-05-14T09:17:28.119Z,23.06
2023-05-14T09:20:36.639Z,22.82
2023-05-14T09:23:58.762Z,22.38
2023-05-14T09:27:10.905Z,22.43
2023-05-14T09:34:06.683Z,22.01
2023-05-14T09:37:15.463Z,22.55
2023-05-14T09:40:29.126Z,22.50
2023-05-14T09:43:45.648Z,22.69
2023-05-14T09:47:00.728Z,23.29
2023-05-14T09:50:26.834Z,24.17
2023-05-14T09:53:36.198Z,25.01
2023-05-14T09:56:49.652Z,25.21
2023-05-14T10:00:08.944Z,25.29
2023-05-14T10:03:45.644Z,24.99
2023-05-14T10:10:22.153Z,24.21
2023-05-14T10:13:43.946Z,24.40
2023-05-14T10:16:58.504Z,24.44
2023-05-14T10:20:16.251Z,24.94
2023-05-14T10:30:30.255Z,22.31
2023-05-14T10:34:18.985Z,22.05
2023-05-14T10:37:42.649Z,21.97
2023-05-14T10:41:01.327Z,22.44
2023-05-14T10:44:40.482Z,21.72
2023-05-14T10:48:04.513Z,21.84
2023-05-14T10:51:14.658Z,21.92
2023-05-14T10:54:20.361Z,21.60
2023-05-14T10:57:45.616Z,21.66
2023-05-14T11:01:15.598Z,21.54
2023-05-14T11:04:29.611Z,21.17
2023-05-14T11:07:55.952Z,21.03
2023-05-14T11:14:49.938Z,20.91
2023-05-14T11:18:15.227Z,20.63
2023-05-14T11:24:41.723Z,20.51
2023-05-14T11:27:49.443Z,20.43
2023-05-14T11:31:09.863Z,20.42
2023-05-14T11:34:18.444Z,20.26
2023-05-14T11:37:40.432Z,20.46
2023-05-14T11:41:06.971Z,20.35
2023-05-14T11:48:00.548Z,19.85
2023-05-14T11:51:18.500Z,19.71
2023-05-14T11:54:29.835Z,19.71
2023-05-14T11:57:49.357Z,19.41
2023-05-14T12:01:36.708Z,19.23
2023-05-14T12:05:09.174Z,18.96
2023-05-14T12:08:22.415Z,18.78
2023-05-14T12:11:47.428Z,18.63
2023-05-14T12:18:32.012Z,18.63
2023-05-14T12:21:42.134Z,18.56
2023-05-14T12:25:08.547Z,18.43
2023-05-14T12:28:22.351Z,18.35
2023-05-14T12:31:39.684Z,18.27
2023-05-14T12:34:53.710Z,18.16
2023-05-14T12:38:03.400Z,18.19
2023-05-14T12:41:22.639Z,17.95
2023-05-14T12:44:38.406Z,17.94
2023-05-14T12:48:02.597Z,17.84
2023-05-14T12:51:26.949Z,17.55
2023-05-14T12:54:33.164Z,17.49
2023-05-14T12:57:39.878Z,17.22
2023-05-14T13:01:06.826Z,17.21
2023-05-14T13:04:52.949Z,17.09
2023-05-14T13:08:20.838Z,16.97
2023-05-14T13:11:35.495Z,16.96
2023-05-14T13:14:42.601Z,16.92
2023-05-14T13:18:12.151Z,16.97
2023-05-14T13:21:21.035Z,16.98
2023-05-14T13:24:29.453Z,17.18
2023-05-14T13:28:09.409Z,17.06
2023-05-14T13:31:19.018Z,17.17
2023-05-14T13:34:32.650Z,17.23
2023-05-14T13:37:48.664Z,17.25
2023-05-14T13:41:37.514Z,17.18
2023-05-14T13:44:59.683Z,17.15
2023-05-14T13:48:45.930Z,17.28
2023-05-14T13:52:03.631Z,17.35
2023-05-14T13:55:23.021Z,17.35
2023-05-14T13:58:33.677Z,17.36
2023-05-14T14:01:47.370Z,17.46
2023-05-14T14:05:03.685Z,17.45
2023-05-14T14:08:40.707Z,17.34
2023-05-14T14:12:02.875Z,17.28
2023-05-14T14:15:17.736Z,17.21
2023-05-14T14:18:44.235Z,17.05
2023-05-14T14:22:08.418Z,16.96
2023-05-14T14:28:49.056Z,16.70
2023-05-14T14:32:36.929Z,16.61
2023-05-14T14:35:58.173Z,16.53
2023-05-14T14:39:05.441Z,16.41
2023-05-14T14:45:55.127Z,16.29
2023-05-14T14:49:15.667Z,16.31
2023-05-14T14:52:25.979Z,16.28
2023-05-14T14:55:36.028Z,16.25
2023-05-14T14:58:46.828Z,16.23
2023-05-14T15:02:09.235Z,16.22
2023-05-14T15:09:38.810Z,16.41
2023-05-14T15:13:08.969Z,16.71
2023-05-14T15:16:27.055Z,16.86
2023-05-14T15:19:36.356Z,17.01
2023-05-14T15:22:46.289Z,17.01
2023-05-14T15:26:08.011Z,17.00
2023-05-14T15:29:29.136Z,17.07
2023-05-14T15:33:04.365Z,17.09
2023-05-14T15:36:18.551Z,17.07
2023-05-14T15:39:48.171Z,17.09
2023-05-14T15:43:01.111Z,17.01
2023-05-14T15:46:33.395Z,16.96
2023-05-14T15:49:43.162Z,16.83
2023-05-14T15:53:03.295Z,16.75
2023-05-14T15:56:13.585Z,16.56
2023-05-14T15:59:32.178Z,16.48
2023-05-14T16:02:58.179Z,16.44
2023-05-14T16:06:11.189Z,16.37
2023-05-14T16:09:37.712Z,16.29
2023-05-14T16:12:52.957Z,16.21
2023-05-14T16:16:00.250Z,16.08
2023-05-14T16:19:22.944Z,16.03
2023-05-14T16:22:48.045Z,15.96
2023-05-14T16:26:13.900Z,15.94
2023-05-14T16:29:36.570Z,15.91
2023-05-14T16:33:03.632Z,15.87
2023-05-14T16:36:22.711Z,15.80
2023-05-14T16:39:37.873Z,15.72
2023-05-14T16:43:05.960Z,15.61
2023-05-14T16:46:29.550Z,15.53
2023-05-14T16:49:53.743Z,15.49
2023-05-14T16:53:03.283Z,15.44
2023-05-14T16:56:18.194Z,15.36
2023-05-14T16:59:35.628Z,15.32
2023-05-14T17:02:42.708Z,15.29
2023-05-14T17:05:54.316Z,15.29
2023-05-14T17:09:08.040Z,15.24
2023-05-14T17:12:28.639Z,15.18
2023-05-14T17:16:04.257Z,15.10
2023-05-14T17:19:25.384Z,15.10
2023-05-14T17:22:48.060Z,15.04
2023-05-14T17:25:56.699Z,14.95
2023-05-14T17:29:02.754Z,14.91
2023-05-14T17:32:32.974Z,14.87
2023-05-14T17:35:46.978Z,14.81
2023-05-14T17:39:05.490Z,14.78
2023-05-14T17:42:17.423Z,14.69
2023-05-14T17:45:53.768Z,14.61
2023-05-14T17:49:14.499Z,14.55
2023-05-14T17:52:30.116Z,14.45
2023-05-14T17:55:54.445Z,14.39
2023-05-14T17:59:16.068Z,14.35
2023-05-14T18:02:34.587Z,14.30
2023-05-14T18:05:54.263Z,14.23
2023-05-14T18:09:12.275Z,14.20
2023-05-14T18:12:30.803Z,14.16
2023-05-14T18:15:44.911Z,14.12
2023-05-14T18:18:53.651Z,14.10
2023-05-14T18:22:08.249Z,14.07
2023-05-14T18:28:57.942Z,14.06
2023-05-14T18:32:19.604Z,14.01
2023-05-14T18:35:48.397Z,13.99
2023-05-14T18:38:55.540Z,13.95
2023-05-14T18:42:20.876Z,13.92
2023-05-14T18:45:41.452Z,13.92
2023-05-14T18:49:13.769Z,13.90
2023-05-14T18:52:45.914Z,13.85
2023-05-14T18:55:58.067Z,13.85
2023-05-14T18:59:12.717Z,13.83
2023-05-14T19:02:24.573Z,13.82
2023-05-14T19:05:34.872Z,13.83
2023-05-14T19:09:25.014Z,13.83
2023-05-14T19:12:47.318Z,13.79
2023-05-14T19:15:57.204Z,13.79
2023-05-14T19:19:04.883Z,13.79
2023-05-14T19:22:30.861Z,13.78
2023-05-14T19:26:08.595Z,13.78
2023-05-14T19:33:01.287Z,13.72
2023-05-14T19:39:47.863Z,13.66
2023-05-14T19:42:59.132Z,13.65
2023-05-14T19:46:15.380Z,13.66
2023-05-14T19:52:47.584Z,13.59
2023-05-14T19:56:27.276Z,13.53
2023-05-14T19:59:40.671Z,13.49
2023-05-14T20:03:14.623Z,13.47
2023-05-14T20:06:34.833Z,13.44
2023-05-14T20:10:10.018Z,13.43
2023-05-14T20:17:04.119Z,13.39
2023-05-14T20:20:14.628Z,13.37
2023-05-14T20:24:17.317Z,13.35
2023-05-14T20:27:34.729Z,13.29
2023-05-14T20:30:58.526Z,13.25
2023-05-14T20:34:31.001Z,13.22
2023-05-14T20:37:54.137Z,13.16
2023-05-14T20:41:15.110Z,13.13
2023-05-14T20:44:37.190Z,13.11
2023-05-14T20:47:57.026Z,13.09
2023-05-14T20:51:15.212Z,13.09
2023-05-14T20:54:37.650Z,13.09
2023-05-14T20:57:53.361Z,13.06
2023-05-14T21:01:19.097Z,13.06
2023-05-14T21:08:33.055Z,13.02
2023-05-14T21:12:15.117Z,13.00
2023-05-14T21:15:34.098Z,13.00
2023-05-14T21:18:46.833Z,12.97
2023-05-14T21:22:09.031Z,12.96
2023-05-14T21:25:25.093Z,12.95
2023-05-14T21:28:44.241Z,12.96
2023-05-14T21:32:00.761Z,12.95
2023-05-14T21:35:29.586Z,12.93
2023-05-14T21:38:48.161Z,12.93
2023-05-14T21:42:06.936Z,12.92
2023-05-14T21:45:23.879Z,12.88
2023-05-14T21:48:32.753Z,12.85
2023-05-14T21:51:40.784Z,12.83
2023-05-14T21:54:59.889Z,12.80
2023-05-14T21:58:22.053Z,12.75
2023-05-14T22:05:20.718Z,12.69
2023-05-14T22:08:30.177Z,12.68
2023-05-14T22:11:54.175Z,12.68
2023-05-14T22:15:16.358Z,12.72
2023-05-14T22:19:01.799Z,12.74
2023-05-14T22:22:32.891Z,12.75
2023-05-14T22:25:55.979Z,12.76
2023-05-14T22:29:31.579Z,12.78
2023-05-14T22:32:58.980Z,12.79
2023-05-14T22:40:11.772Z,12.77
2023-05-14T22:43:28.272Z,12.79
2023-05-14T22:50:36.395Z,12.79
2023-05-14T22:54:08.531Z,12.76
2023-05-14T22:57:28.956Z,12.79
2023-05-14T23:00:51.451Z,12.83
2023-05-14T23:04:20.217Z,12.86
2023-05-14T23:07:41.783Z,12.87
2023-05-14T23:10:58.306Z,12.87
2023-05-14T23:14:13.711Z,12.88
2023-05-14T23:17:32.740Z,12.92
2023-05-14T23:24:29.435Z,12.97
2023-05-14T23:27:39.285Z,12.99
2023-05-14T23:30:52.991Z,13.00
2023-05-14T23:34:28.683Z,13.02
2023-05-14T23:37:54.657Z,13.04
2023-05-14T23:41:33.670Z,13.04
2023-05-14T23:44:54.236Z,13.05
2023-05-14T23:48:31.157Z,13.05
2023-05-14T23:51:46.454Z,13.06
2023-05-14T23:55:01.957Z,13.05
2023-05-14T23:58:32.348Z,13.05
